Kokoda Airport

PG-KKD · Northern Province, 巴布亚新几内亚

METAR PG-KKD · Kokoda Airport

罗盘
风向 的 风向 323° Kokoda Airport 17/35
风向 到 风: 5 kt, 阵阵 10 kt, 2 beaufort

4 kt

2 kt
改变
0 ft 1.000 2.000 3.000 4.000 5.000
BKN 5.000
METAR AYPY 091800Z 323005G10KT 9999 BKN050 25/24 Q1006

METAR Kokoda Airport - PG-KKD/KKD

Kokoda Airport是,巴布亚新几内亚中的小机场。 该机场有一条跑道: 17/35. 该领域的国际民航组织标志是PG-KKD 它的国际航空运输协会代码是KKD.

这份报告是针对2022年12月10日 04:00, 当地时间在傑克遜斯國際機場进行的。

机场观察

风向为323°,速度为5 kt。 已测得10 kt的阵风。

可见度为10 km 或者更多。

有碎云在5.000 ft的高度。 破损或更高的上限为5.000 ft。

温度和风寒是25 °C。 露点为24 °C,相对湿度为94%。 海平面上的气压为1006 hPa (QNH)。

白天

今天,太阳从05:42升起,在18:20降落。 这适用于Kokoda Airport,世界夏令时可能有所不同。 当地时间与世界标准时间之间的时差为+10 小时。 当前,没有夏令时有效。

公司介绍

我们没有关于这个机场的公司信息。

体会

到Vliegles.nl去找飞行课程,跳伞和其他飞行体验。 浏览页面,了解Kokoda Airport附近所有可用的活动。 你也可以使用搜索功能来寻找你所在地附近的特定飞行课程、跳伞或其他飞行体验。

跑道

Id 标题 侧风 逆风 侧风 %
17/35 170°-350° 2-5 kt 4-9 kt 45 %

逆风成分最大的方向会被突出显示,并用于横风计算。 这并不一定意味着这个方向在使用。

乌云

5.000 ft BKN 碎云

温度 & 天气

温度 25 °C
露点 24 °C
相对湿度 94%
Kp-index 1 (0-9)

白天

日出
05:43 (1:15)
中午
12:03
日落
18:23

小工具

你想在你的网站上有一个关于Kokoda Airport的当前航空天气(METAR)的小部件吗?

显示HTML代码

我们和第三方通过cookies跟踪您在我们网站上的互联网行为。如果你继续,我们认为你同意我们的饼干政策